This demonstration page uses our WeatherBlox Daily Observations layout. Learn more.

Left ArrowRight Arrow

36.17497, -115.13722

Hourly Observations for March 7, 2021

Temp ( °F °C ) Dew Point ( °F °C ) Humidity (%) Winds ( mph kmh ) Pressure ( in mb ) Visibility ( mi km ) Precip ( " mm )
12:53 am 00:53 Clear 57 13.9 12 -11.1 17 17 W 7 11 29.9 1013 10 16.0934 0 0
1:53 am 01:53 Clear 53 11.7 13 -10.6 20 20 WNW 6 9 29.91 1013 10 16.0934 0 0
2:53 am 02:53 Clear 51 10.6 12 -11.1 21 21 WNW 10 17 29.9 1013 10 16.0934 0 0
3:53 am 03:53 Clear 53 11.7 11 -11.7 18 18 W 3 6 29.91 1013 10 16.0934 0 0
4:53 am 04:53 Clear 50 10 13 -10.6 22 22 WNW 3 6 29.94 1014 10 16.0934 0 0
5:53 am 05:53 Clear 50 10 15 -9.4 25 25 N 5 7 29.95 1014 10 16.0934 0 0
6:53 am 06:53 Sunny 51 10.6 16 -8.9 25 25 NW 6 9 29.97 1015 10 16.0934 0 0
7:53 am 07:53 Sunny 56 13.3 16 -8.9 21 21 Calm 29.99 1016 10 16.0934 0 0
8:53 am 08:53 Sunny 63 17.2 15 -9.4 15 15 Calm 30 1016 10 16.0934 0 0
9:53 am 09:53 Sunny 64 17.8 13 -10.6 13 13 Calm 30.01 1016 10 16.0934 0 0
10:53 am 10:53 Sunny 68 20 14 -10 12 12 E 7 11 30 1016 10 16.0934 0 0
11:53 am 11:53 Sunny 70 21.1 16 -8.9 12 12 E 5 7 29.98 1015 10 16.0934 0 0
12:53 pm 12:53 Sunny 70 21.1 17 -8.3 13 13 SE 6 9 29.95 1014 10 16.0934 0 0
1:53 pm 13:53 Sunny 72 22.2 18 -7.8 13 13 VRB 6 9 29.94 1014 10 16.0934 0 0
2:53 pm 14:53 Sunny 74 23.3 19 -7.2 12 12 ENE 7 11 29.93 1013 10 16.0934 0 0
3:53 pm 15:53 Sunny 75 23.9 19 -7.2 12 12 ENE 6 9 29.91 1013 10 16.0934 0 0
4:53 pm 16:53 Sunny 73 22.8 19 -7.2 13 13 E 3 6 29.9 1012 10 16.0934 0 0
5:53 pm 17:53 Clear 71 21.7 19 -7.2 14 14 SE 8 13 29.9 1012 10 16.0934 0 0
6:53 pm 18:53 Clear 69 20.6 22 -5.6 17 17 N 3 6 29.91 1013 10 16.0934 0 0
7:53 pm 19:53 Clear 68 20 21 -6.1 17 17 Calm 29.91 1013 10 16.0934 0 0
8:53 pm 20:53 Clear 67 19.4 21 -6.1 17 17 S 10 17 29.91 1013 10 16.0934 0 0
9:53 pm 21:53 Clear 67 19.4 20 -6.7 17 17 SSW 10 17 29.9 1013 10 16.0934 0 0
10:53 pm 22:53 Clear 66 18.9 20 -6.7 17 17 SW 9 15 29.89 1012 10 16.0934 0 0
11:53 pm 23:53 Clear 64 17.8 21 -6.1 19 19 Calm 29.88 1012 10 16.0934 0 0

Powered by AerisWeather